Time;durP1;ratioP1;P1;durP2;ratioP2;P2;SDS_P1;SDS_P2;PMS_P1;PMS_P2;Temp;Humidity;BMP_temperature;BMP_pressure;BME280_temperature;BME280_humidity;BME280_pressure;Samples;Min_cycle;Max_cycle;Signal;HPM_P1;HPM_P2
2023/07/21 00:00:34;;;;;;;4.45;3.22;;;23.60;99.90;;;;;;5035251;28;20223;-75
2023/07/21 00:03:01;;;;;;;3.40;3.10;;;23.50;99.90;;;;;;5041476;28;20854;-76
2023/07/21 00:05:28;;;;;;;3.22;3.03;;;23.50;99.90;;;;;;5036228;28;20226;-75
2023/07/21 00:07:56;;;;;;;3.28;3.05;;;23.50;99.90;;;;;;5039353;28;20260;-75
2023/07/21 00:10:24;;;;;;;3.65;3.30;;;23.40;99.90;;;;;;5038234;28;20222;-75
2023/07/21 00:12:51;;;;;;;3.20;3.00;;;23.40;99.90;;;;;;5037116;28;20214;-75
2023/07/21 00:15:19;;;;;;;3.10;2.80;;;23.40;99.90;;;;;;5040900;28;20230;-75
2023/07/21 00:17:48;;;;;;;3.63;3.33;;;23.40;99.90;;;;;;5037905;28;20235;-75
2023/07/21 00:20:21;;;;;;;3.20;2.90;;;23.40;99.90;;;;;;5038816;28;20225;-75
2023/07/21 00:22:48;;;;;;;4.30;3.67;;;23.40;99.90;;;;;;5039198;28;20203;-75
2023/07/21 00:25:15;;;;;;;3.15;2.95;;;23.40;99.90;;;;;;5034782;28;20201;-74
2023/07/21 00:27:44;;;;;;;3.50;3.20;;;23.50;99.90;;;;;;5039853;28;22495;-73
2023/07/21 00:30:12;;;;;;;3.60;3.28;;;23.50;99.90;;;;;;5038190;28;20275;-75
2023/07/21 00:32:41;;;;;;;3.63;3.33;;;23.30;99.90;;;;;;5040536;28;20199;-76
2023/07/21 00:35:10;;;;;;;3.60;3.30;;;23.20;99.90;;;;;;5038023;28;20234;-74
2023/07/21 00:37:38;;;;;;;3.90;3.60;;;23.10;99.90;;;;;;5034616;28;20819;-75
2023/07/21 00:40:09;;;;;;;3.30;3.00;;;23.00;99.90;;;;;;5033923;28;20827;-73
2023/07/21 00:42:36;;;;;;;3.70;3.33;;;22.90;99.90;;;;;;5038211;28;20762;-74
2023/07/21 00:45:04;;;;;;;3.30;3.03;;;23.00;99.90;;;;;;5038861;28;20294;-74
2023/07/21 00:47:32;;;;;;;3.78;3.45;;;23.10;99.90;;;;;;5041206;28;20325;-74
2023/07/21 00:50:00;;;;;;;3.50;3.20;;;23.10;99.90;;;;;;5034351;28;20308;-74
2023/07/21 00:52:29;;;;;;;3.13;2.92;;;23.00;99.90;;;;;;5039739;28;20290;-75
2023/07/21 00:54:56;;;;;;;3.75;3.40;;;23.00;99.90;;;;;;5039971;28;20199;-74
2023/07/21 00:57:24;;;;;;;3.47;3.17;;;23.00;99.90;;;;;;5038919;28;20295;-74
2023/07/21 00:59:51;;;;;;;3.40;3.10;;;23.00;99.90;;;;;;5036554;28;20578;-75
2023/07/21 01:02:18;;;;;;;4.00;3.47;;;23.00;99.90;;;;;;5035023;28;20227;-75
2023/07/21 01:04:46;;;;;;;3.95;3.65;;;22.90;99.90;;;;;;5036796;28;20207;-75
2023/07/21 01:07:15;;;;;;;3.45;3.17;;;22.90;99.90;;;;;;5039228;28;20206;-75
2023/07/21 01:09:45;;;;;;;3.28;3.03;;;22.90;99.90;;;;;;5039914;28;20691;-75
2023/07/21 01:12:13;;;;;;;3.65;3.33;;;22.80;99.90;;;;;;5037585;28;20817;-75
2023/07/21 01:14:40;;;;;;;4.25;3.85;;;22.80;99.90;;;;;;5038094;28;20246;-76
2023/07/21 01:17:09;;;;;;;3.60;3.30;;;22.80;99.90;;;;;;5040222;28;20207;-74
2023/07/21 01:19:38;;;;;;;4.03;3.67;;;22.80;99.90;;;;;;5034119;28;20304;-75
2023/07/21 01:22:11;;;;;;;3.80;3.50;;;22.70;99.90;;;;;;5038171;28;20218;-75
2023/07/21 01:24:47;;;;;;;4.32;3.90;;;22.70;99.90;;;;;;5032726;28;20235;-75
2023/07/21 01:27:20;;;;;;;4.05;3.75;;;22.70;99.90;;;;;;5032203;28;20227;-75
2023/07/21 01:29:48;;;;;;;4.25;3.85;;;22.70;99.90;;;;;;5036868;28;20211;-75
2023/07/21 01:32:19;;;;;;;4.60;4.20;;;22.80;99.90;;;;;;5037116;28;20219;-74
2023/07/21 01:34:47;;;;;;;4.20;3.72;;;22.70;99.90;;;;;;5039163;28;20294;-73
2023/07/21 01:37:17;;;;;;;4.25;3.95;;;22.60;99.90;;;;;;5038485;28;20230;-74
2023/07/21 01:39:44;;;;;;;4.03;3.72;;;22.60;99.90;;;;;;5039229;28;20226;-73
2023/07/21 01:42:11;;;;;;;4.80;3.95;;;22.60;99.90;;;;;;5036498;28;20286;-75
2023/07/21 01:44:41;;;;;;;4.50;3.55;;;22.60;99.90;;;;;;5037652;28;20328;-74
2023/07/21 01:47:08;;;;;;;4.70;3.88;;;22.60;99.90;;;;;;5038177;28;20210;-74
2023/07/21 01:49:35;;;;;;;4.40;3.97;;;22.70;99.90;;;;;;5034869;28;20305;-75
2023/07/21 01:52:02;;;;;;;3.67;3.20;;;22.70;99.90;;;;;;5038055;28;20297;-75
2023/07/21 01:54:34;;;;;;;4.15;3.70;;;22.70;99.90;;;;;;5040129;28;20243;-75
2023/07/21 01:57:06;;;;;;;3.55;3.25;;;22.70;99.90;;;;;;5035685;28;20770;-75
2023/07/21 01:59:33;;;;;;;4.18;3.40;;;22.60;99.90;;;;;;5037230;28;20207;-74
2023/07/21 02:02:02;;;;;;;4.68;3.65;;;22.70;99.90;;;;;;5033620;28;20294;-75
2023/07/21 02:04:29;;;;;;;4.13;3.70;;;22.70;99.90;;;;;;5039089;28;20723;-76
2023/07/21 02:06:56;;;;;;;3.40;3.10;;;22.70;99.90;;;;;;5035140;28;20230;-73
2023/07/21 02:09:24;;;;;;;3.72;3.42;;;22.60;99.90;;;;;;5038908;28;20223;-75
2023/07/21 02:11:51;;;;;;;3.65;3.35;;;22.60;99.90;;;;;;5034231;28;20215;-75
2023/07/21 02:14:18;;;;;;;3.92;3.55;;;22.60;99.90;;;;;;5036624;28;20294;-74
2023/07/21 02:16:45;;;;;;;3.63;3.33;;;22.60;99.90;;;;;;5037321;28;20746;-75
2023/07/21 02:19:14;;;;;;;3.88;3.58;;;22.50;99.90;;;;;;5036262;28;20626;-74
2023/07/21 02:21:41;;;;;;;3.15;2.92;;;22.40;99.90;;;;;;5038547;28;20206;-75
2023/07/21 02:24:08;;;;;;;3.22;3.00;;;22.40;99.90;;;;;;5037911;28;20294;-73
2023/07/21 02:26:35;;;;;;;3.17;2.97;;;22.30;99.90;;;;;;5038456;28;20859;-73
2023/07/21 02:29:02;;;;;;;3.72;3.42;;;22.20;99.90;;;;;;5034539;28;20230;-75
2023/07/21 02:31:29;;;;;;;3.90;3.60;;;22.20;99.90;;;;;;5037612;28;20208;-75
2023/07/21 02:33:56;;;;;;;4.90;3.60;;;22.30;99.90;;;;;;5032393;28;20260;-75
2023/07/21 02:36:24;;;;;;;5.50;3.45;;;22.30;99.90;;;;;;5035860;28;20198;-74
2023/07/21 02:38:51;;;;;;;6.97;3.53;;;22.30;99.90;;;;;;5036002;28;22021;-75
2023/07/21 02:41:18;;;;;;;4.18;3.78;;;22.40;99.90;;;;;;5037904;28;20286;-75
2023/07/21 02:43:45;;;;;;;3.63;3.33;;;22.40;99.90;;;;;;5032961;28;20234;-74
2023/07/21 02:46:14;;;;;;;3.45;3.13;;;22.40;99.90;;;;;;5036234;28;20949;-74
2023/07/21 02:48:41;;;;;;;3.80;3.50;;;22.50;99.90;;;;;;5037019;28;20297;-75
2023/07/21 02:51:08;;;;;;;3.63;3.33;;;22.50;99.90;;;;;;5037141;28;20738;-74
2023/07/21 02:53:36;;;;;;;3.47;3.28;;;22.40;99.90;;;;;;5036637;28;20242;-76
2023/07/21 02:56:04;;;;;;;3.33;3.00;;;22.40;99.90;;;;;;5038456;28;20206;-73
2023/07/21 02:58:32;;;;;;;3.42;3.13;;;22.30;99.90;;;;;;5036613;28;20306;-74
2023/07/21 03:01:03;;;;;;;3.20;3.00;;;22.20;99.90;;;;;;5036929;28;20199;-75
2023/07/21 03:03:32;;;;;;;3.83;3.53;;;22.10;99.90;;;;;;5035284;28;20191;-75
2023/07/21 03:05:59;;;;;;;3.20;3.00;;;22.00;99.90;;;;;;5038993;28;20217;-75
2023/07/21 03:08:28;;;;;;;3.13;2.92;;;21.90;99.90;;;;;;5035283;28;20290;-74
2023/07/21 03:10:58;;;;;;;3.15;2.92;;;21.80;99.90;;;;;;5038538;28;20356;-74
2023/07/21 03:13:25;;;;;;;3.60;3.30;;;21.70;99.90;;;;;;5037475;28;20227;-74
2023/07/21 03:15:53;;;;;;;4.32;3.13;;;21.70;99.90;;;;;;5036250;28;20325;-75
2023/07/21 03:18:20;;;;;;;3.38;3.08;;;21.80;99.90;;;;;;5034701;28;20257;-73
2023/07/21 03:20:49;;;;;;;4.05;2.83;;;21.80;99.90;;;;;;5036679;28;20292;-75
2023/07/21 03:23:16;;;;;;;3.30;3.00;;;21.80;99.90;;;;;;5036532;28;20298;-75
2023/07/21 03:25:43;;;;;;;3.00;2.80;;;21.80;99.90;;;;;;5033326;28;20199;-74
2023/07/21 03:28:12;;;;;;;3.08;2.83;;;21.80;99.90;;;;;;5037101;28;20222;-75
2023/07/21 03:30:40;;;;;;;3.15;2.88;;;21.70;99.90;;;;;;5035950;28;20306;-75
2023/07/21 03:33:07;;;;;;;3.17;2.95;;;21.70;99.90;;;;;;5036916;28;20217;-73
2023/07/21 03:35:34;;;;;;;4.78;3.33;;;21.70;99.90;;;;;;5035694;28;20336;-76
2023/07/21 03:38:01;;;;;;;3.10;2.80;;;21.70;99.90;;;;;;5034275;28;20264;-75
2023/07/21 03:40:28;;;;;;;3.72;3.00;;;21.70;99.90;;;;;;5036189;28;20223;-75
2023/07/21 03:42:55;;;;;;;5.57;3.33;;;21.70;99.90;;;;;;5037902;28;20234;-75
2023/07/21 03:45:23;;;;;;;3.60;3.10;;;21.70;99.90;;;;;;5034493;28;20203;-75
2023/07/21 03:47:50;;;;;;;5.60;2.92;;;21.70;99.90;;;;;;5037225;28;20214;-75
2023/07/21 03:50:17;;;;;;;4.30;2.90;;;21.70;99.90;;;;;;5035582;28;20214;-75
2023/07/21 03:52:44;;;;;;;3.85;3.10;;;21.70;99.90;;;;;;5035076;28;20295;-75
2023/07/21 03:55:11;;;;;;;3.45;3.15;;;21.70;99.90;;;;;;5038121;28;20207;-76
2023/07/21 03:57:39;;;;;;;3.20;2.90;;;21.70;99.90;;;;;;5036006;28;20718;-74
2023/07/21 04:00:08;;;;;;;4.70;3.20;;;21.70;99.90;;;;;;5034667;28;20246;-75
2023/07/21 04:02:37;;;;;;;3.50;3.20;;;21.70;99.90;;;;;;5035753;28;20203;-75
2023/07/21 04:05:04;;;;;;;5.30;3.45;;;21.70;99.90;;;;;;5037631;28;21454;-75
2023/07/21 04:07:31;;;;;;;3.38;2.83;;;21.70;99.90;;;;;;5035290;28;20299;-75
2023/07/21 04:09:58;;;;;;;3.20;2.88;;;21.70;99.90;;;;;;5033921;28;20254;-75
2023/07/21 04:12:25;;;;;;;3.40;3.10;;;21.70;99.90;;;;;;5036170;28;20203;-75
2023/07/21 04:14:53;;;;;;;3.45;2.97;;;21.60;99.90;;;;;;5032489;28;20209;-74
2023/07/21 04:17:20;;;;;;;3.05;2.85;;;21.60;99.90;;;;;;5031951;28;20204;-73
2023/07/21 04:19:48;;;;;;;3.03;2.83;;;21.60;99.90;;;;;;5034483;28;20280;-74
2023/07/21 04:22:16;;;;;;;3.17;2.97;;;21.60;99.90;;;;;;5037895;28;20261;-73
2023/07/21 04:24:43;;;;;;;4.07;2.92;;;21.60;99.90;;;;;;5035469;28;20199;-74
2023/07/21 04:27:10;;;;;;;4.72;2.92;;;21.60;99.90;;;;;;5034733;28;20194;-74
2023/07/21 04:29:37;;;;;;;4.03;2.60;;;21.70;99.90;;;;;;5038266;28;20214;-75
2023/07/21 04:32:04;;;;;;;3.45;3.15;;;21.70;99.90;;;;;;5034471;28;20195;-76
2023/07/21 04:34:31;;;;;;;4.10;3.10;;;21.70;99.90;;;;;;5036116;28;20319;-74
2023/07/21 04:37:00;;;;;;;3.08;2.78;;;21.80;99.90;;;;;;5035365;28;20250;-74
2023/07/21 04:39:27;;;;;;;3.25;2.90;;;21.80;99.90;;;;;;5034909;28;20227;-76
2023/07/21 04:41:54;;;;;;;3.40;3.10;;;21.90;99.90;;;;;;5033477;28;20298;-75
2023/07/21 04:44:21;;;;;;;3.38;3.08;;;22.10;99.90;;;;;;5036218;28;20752;-74
2023/07/21 04:46:48;;;;;;;3.25;3.05;;;22.20;99.90;;;;;;5034173;28;20206;-74
2023/07/21 04:49:15;;;;;;;3.17;2.88;;;22.30;99.90;;;;;;5036537;28;20869;-74
2023/07/21 04:51:42;;;;;;;3.15;2.85;;;22.50;99.90;;;;;;5041744;28;20296;-76
2023/07/21 04:54:11;;;;;;;3.35;3.05;;;22.60;99.90;;;;;;5037415;28;20257;-74
2023/07/21 04:56:38;;;;;;;2.95;2.75;;;22.60;99.90;;;;;;5044555;28;20203;-75
2023/07/21 04:59:06;;;;;;;2.95;2.75;;;22.70;99.90;;;;;;5037170;28;20227;-74
2023/07/21 05:01:33;;;;;;;3.25;2.95;;;22.70;99.90;;;;;;5038698;28;20687;-74
2023/07/21 05:04:00;;;;;;;2.65;2.45;;;22.70;99.90;;;;;;5038236;28;20202;-74
2023/07/21 05:06:27;;;;;;;3.30;2.83;;;22.60;99.90;;;;;;5040793;28;20963;-74
2023/07/21 05:08:54;;;;;;;3.30;3.00;;;22.40;99.90;;;;;;5037672;28;20626;-75
2023/07/21 05:11:22;;;;;;;3.45;3.15;;;22.30;99.90;;;;;;5039996;28;20272;-75
2023/07/21 05:13:51;;;;;;;3.05;2.85;;;22.30;99.90;;;;;;5036690;28;20203;-76
2023/07/21 05:16:18;;;;;;;3.45;3.15;;;22.30;99.90;;;;;;5038793;28;20204;-74
2023/07/21 05:18:45;;;;;;;3.40;3.10;;;22.30;99.90;;;;;;5039484;28;20234;-76
2023/07/21 05:21:12;;;;;;;2.50;2.30;;;22.30;99.90;;;;;;5039980;28;20650;-76
2023/07/21 05:23:39;;;;;;;2.85;2.63;;;22.30;99.90;;;;;;5039768;28;20229;-76
2023/07/21 05:26:06;;;;;;;3.42;2.88;;;22.30;99.90;;;;;;5037486;28;20290;-75
2023/07/21 05:28:35;;;;;;;3.00;2.67;;;22.40;99.90;;;;;;5039296;28;20237;-74
2023/07/21 05:31:03;;;;;;;3.17;2.88;;;22.50;99.90;;;;;;5039679;28;20243;-75
2023/07/21 05:33:30;;;;;;;3.10;2.80;;;22.60;99.90;;;;;;5040811;28;20749;-75
2023/07/21 05:36:05;;;;;;;3.53;2.55;;;22.80;99.90;;;;;;5044550;28;20265;-75
2023/07/21 05:38:32;;;;;;;2.67;2.47;;;23.00;99.90;;;;;;5037631;28;20230;-75
2023/07/21 05:40:59;;;;;;;3.17;2.88;;;23.20;99.90;;;;;;5033781;28;20621;-75
2023/07/21 05:43:26;;;;;;;3.33;3.03;;;23.20;99.90;;;;;;5036412;28;20258;-75
2023/07/21 05:45:55;;;;;;;3.03;2.80;;;23.10;99.90;;;;;;5039019;28;20191;-75
2023/07/21 05:48:24;;;;;;;3.25;3.00;;;23.10;99.90;;;;;;5034820;28;20754;-75
2023/07/21 05:50:51;;;;;;;3.22;2.92;;;23.10;99.90;;;;;;5035782;28;20223;-75
2023/07/21 05:53:19;;;;;;;3.67;3.38;;;23.10;99.90;;;;;;5035701;28;20211;-73
2023/07/21 05:55:46;;;;;;;2.80;2.60;;;23.00;99.90;;;;;;5036602;28;20205;-75
2023/07/21 05:58:13;;;;;;;2.95;2.65;;;22.90;99.90;;;;;;5037804;28;20647;-74
2023/07/21 06:00:40;;;;;;;3.13;2.85;;;22.80;99.90;;;;;;5037446;28;20668;-74
2023/07/21 06:03:09;;;;;;;2.72;2.53;;;22.70;99.90;;;;;;5036810;28;20892;-77
2023/07/21 06:05:36;;;;;;;5.57;3.53;;;22.60;99.90;;;;;;5040997;28;20195;-77
2023/07/21 06:08:03;;;;;;;3.92;3.05;;;22.60;99.90;;;;;;5036777;28;20206;-76
2023/07/21 06:10:31;;;;;;;2.90;2.70;;;22.70;99.90;;;;;;5037321;28;20215;-76
2023/07/21 06:12:58;;;;;;;2.60;2.40;;;22.80;99.90;;;;;;5033615;28;20733;-78
2023/07/21 06:15:25;;;;;;;3.03;2.80;;;22.70;99.90;;;;;;5039431;28;20616;-77
2023/07/21 06:17:53;;;;;;;3.08;2.75;;;22.80;99.90;;;;;;5038682;28;20199;-77
2023/07/21 06:20:24;;;;;;;3.42;3.13;;;22.80;99.90;;;;;;5034871;28;20311;-76
2023/07/21 06:22:52;;;;;;;3.30;3.00;;;22.80;99.90;;;;;;5035465;28;20253;-75
2023/07/21 06:25:19;;;;;;;3.25;2.95;;;22.90;99.90;;;;;;5035722;28;20210;-75
2023/07/21 06:27:48;;;;;;;2.70;2.50;;;23.00;99.90;;;;;;5039801;28;20200;-76
2023/07/21 06:30:15;;;;;;;3.25;2.95;;;23.10;99.90;;;;;;5030696;28;20270;-76
2023/07/21 06:32:42;;;;;;;4.18;3.42;;;23.30;99.90;;;;;;5037807;28;20195;-76
2023/07/21 06:35:09;;;;;;;4.43;2.95;;;23.50;99.90;;;;;;5036451;28;20298;-77
2023/07/21 06:37:39;;;;;;;3.35;2.95;;;23.70;99.90;;;;;;5036895;28;20199;-78
2023/07/21 06:40:06;;;;;;;3.33;3.03;;;23.90;99.90;;;;;;5032615;28;20325;-75
2023/07/21 06:42:33;;;;;;;2.80;2.60;;;24.00;99.90;;;;;;5036806;28;20703;-76
2023/07/21 06:45:01;;;;;;;3.20;2.90;;;24.20;99.90;;;;;;5033006;28;20191;-76
2023/07/21 06:47:28;;;;;;;2.83;2.50;;;24.40;99.90;;;;;;5038221;28;20233;-77
2023/07/21 06:49:55;;;;;;;4.07;3.47;;;24.50;99.90;;;;;;5034063;28;20227;-76
2023/07/21 06:52:21;;;;;;;11.95;5.43;;;24.30;99.90;;;;;;5037118;28;20202;-77
2023/07/21 06:54:50;;;;;;;4.05;3.20;;;24.00;99.90;;;;;;5035631;28;20203;-76
2023/07/21 06:57:18;;;;;;;3.20;2.90;;;23.60;99.90;;;;;;5030891;28;20180;-76
2023/07/21 06:59:46;;;;;;;13.45;6.05;;;23.60;99.90;;;;;;5033133;28;20222;-77
2023/07/21 07:02:13;;;;;;;8.10;4.40;;;23.70;99.90;;;;;;5033694;28;20673;-76
2023/07/21 07:04:40;;;;;;;4.78;3.95;;;23.80;99.90;;;;;;5039825;28;20195;-76
2023/07/21 07:07:08;;;;;;;5.55;3.67;;;23.80;99.90;;;;;;5035585;28;20191;-74
2023/07/21 07:09:35;;;;;;;4.47;3.45;;;23.70;99.90;;;;;;5036173;28;20314;-76
2023/07/21 07:12:04;;;;;;;3.83;3.10;;;23.50;99.90;;;;;;5035159;28;20904;-78
2023/07/21 07:14:31;;;;;;;3.45;3.15;;;23.40;99.90;;;;;;5038540;28;20203;-76
2023/07/21 07:16:58;;;;;;;3.50;3.17;;;23.20;99.90;;;;;;5036938;28;20252;-76
2023/07/21 07:19:25;;;;;;;4.18;2.80;;;23.20;99.90;;;;;;5041155;28;20277;-77
2023/07/21 07:21:52;;;;;;;2.75;2.55;;;23.10;99.90;;;;;;5040593;28;20282;-76
2023/07/21 07:24:19;;;;;;;3.28;2.97;;;23.00;99.90;;;;;;5034368;28;20235;-75
2023/07/21 07:26:46;;;;;;;4.25;2.83;;;22.90;99.90;;;;;;5029588;28;20220;-75
2023/07/21 07:29:15;;;;;;;3.10;2.80;;;22.90;99.90;;;;;;5034508;28;20709;-77
2023/07/21 07:31:42;;;;;;;4.93;3.55;;;23.00;99.90;;;;;;5033850;28;20215;-78
2023/07/21 07:34:10;;;;;;;6.60;3.80;;;23.00;99.90;;;;;;5035245;28;20207;-78
2023/07/21 07:36:37;;;;;;;3.83;2.90;;;23.00;99.90;;;;;;5033248;28;20337;-77
2023/07/21 07:39:04;;;;;;;3.30;3.00;;;22.90;99.90;;;;;;5034753;28;20223;-77
2023/07/21 07:41:31;;;;;;;3.92;2.80;;;22.90;99.90;;;;;;5038701;28;20203;-76
2023/07/21 07:43:57;;;;;;;2.60;2.40;;;22.80;99.90;;;;;;5043334;28;20205;-77
2023/07/21 07:46:26;;;;;;;2.85;2.63;;;22.80;99.90;;;;;;5043844;28;20204;-77
2023/07/21 07:48:53;;;;;;;3.17;2.88;;;22.80;99.90;;;;;;5033304;28;20250;-77
2023/07/21 07:51:20;;;;;;;4.53;2.97;;;22.80;99.90;;;;;;5035552;28;20302;-77
2023/07/21 07:53:47;;;;;;;4.15;2.90;;;22.80;99.90;;;;;;5041556;28;20199;-79
2023/07/21 07:56:16;;;;;;;5.10;3.22;;;23.00;99.90;;;;;;5039957;28;20207;-77
2023/07/21 07:58:43;;;;;;;5.32;3.63;;;23.10;99.90;;;;;;5038344;28;20212;-76
2023/07/21 08:01:12;;;;;;;4.85;3.50;;;23.30;99.90;;;;;;5035091;28;20279;-78
2023/07/21 08:03:43;;;;;;;12.63;5.68;;;23.40;99.90;;;;;;5037517;28;20191;-78
2023/07/21 08:06:10;;;;;;;15.30;5.50;;;23.60;99.90;;;;;;5034696;28;20204;-78
2023/07/21 08:08:37;;;;;;;7.10;4.00;;;23.60;99.90;;;;;;5039188;28;20872;-78
2023/07/21 08:11:05;;;;;;;5.63;3.35;;;23.60;99.90;;;;;;5030472;28;20309;-76
2023/07/21 08:13:31;;;;;;;13.95;5.63;;;23.50;99.90;;;;;;5031866;28;20207;-77
2023/07/21 08:15:58;;;;;;;10.50;5.63;;;23.40;99.90;;;;;;5033996;28;20750;-77
2023/07/21 08:18:25;;;;;;;5.40;3.80;;;23.20;99.90;;;;;;5037897;28;20248;-78
2023/07/21 08:20:54;;;;;;;5.65;3.40;;;23.10;99.90;;;;;;5035771;28;20701;-78
2023/07/21 08:23:21;;;;;;;4.45;3.15;;;23.00;99.90;;;;;;5043028;28;20267;-77
2023/07/21 08:25:47;;;;;;;4.88;3.45;;;22.90;99.90;;;;;;5041222;28;20273;-78
2023/07/21 08:28:14;;;;;;;4.00;3.28;;;22.80;99.90;;;;;;5040390;28;20195;-76
2023/07/21 08:30:41;;;;;;;3.13;2.80;;;22.80;99.90;;;;;;5035513;28;20644;-76
2023/07/21 08:33:08;;;;;;;3.72;3.03;;;22.80;99.90;;;;;;5035592;28;20226;-77
2023/07/21 08:35:35;;;;;;;2.92;2.72;;;22.80;99.90;;;;;;5033574;28;20286;-77
2023/07/21 08:38:04;;;;;;;4.45;3.05;;;22.80;99.90;;;;;;5034784;28;20303;-77
2023/07/21 08:40:31;;;;;;;3.72;2.78;;;22.80;99.90;;;;;;5037322;28;21109;-77
2023/07/21 08:43:01;;;;;;;3.00;2.70;;;22.70;99.90;;;;;;5034410;28;22135;-76
2023/07/21 08:45:31;;;;;;;3.55;2.58;;;22.70;99.90;;;;;;5036163;28;20815;-77
2023/07/21 08:48:00;;;;;;;2.50;2.30;;;22.60;99.90;;;;;;5033390;28;20945;-76
2023/07/21 08:50:28;;;;;;;2.58;2.38;;;22.50;99.90;;;;;;5034629;28;20444;-77
2023/07/21 08:52:55;;;;;;;1.88;1.77;;;22.50;99.90;;;;;;5043733;28;20196;-77
2023/07/21 08:55:25;;;;;;;2.38;2.17;;;22.50;99.90;;;;;;5047034;28;20805;-77
2023/07/21 08:57:58;;;;;;;2.08;1.90;;;22.40;99.90;;;;;;5041401;28;20206;-77
2023/07/21 09:00:26;;;;;;;2.30;2.10;;;22.40;99.90;;;;;;5035673;28;20970;-78
2023/07/21 09:02:59;;;;;;;2.40;2.20;;;22.40;99.90;;;;;;5036097;28;20195;-77
2023/07/21 09:05:26;;;;;;;2.40;2.20;;;22.40;99.90;;;;;;5043529;28;20199;-77
2023/07/21 09:07:53;;;;;;;2.28;2.08;;;22.40;99.90;;;;;;5046076;28;20245;-77
2023/07/21 09:10:33;;;;;;;2.55;2.22;;;22.30;99.90;;;;;;5036389;28;20246;-77
2023/07/21 09:13:00;;;;;;;2.22;2.03;;;22.30;99.90;;;;;;5046153;28;20211;-77
2023/07/21 09:15:27;;;;;;;2.20;2.05;;;22.20;99.90;;;;;;5038079;28;20598;-78
2023/07/21 09:17:54;;;;;;;2.55;2.10;;;22.20;99.90;;;;;;5041244;28;20226;-76
2023/07/21 09:20:21;;;;;;;2.00;1.90;;;22.20;99.90;;;;;;5041043;28;20792;-76
2023/07/21 09:22:49;;;;;;;2.38;2.20;;;22.10;99.90;;;;;;5039878;28;20199;-76
2023/07/21 09:25:20;;;;;;;2.42;2.22;;;22.00;99.90;;;;;;5043010;28;20286;-77
2023/07/21 09:27:54;;;;;;;2.40;2.20;;;21.90;99.90;;;;;;5038878;28;20688;-76
2023/07/21 09:30:22;;;;;;;2.80;2.60;;;21.90;99.90;;;;;;5036563;28;20923;-77
2023/07/21 09:32:53;;;;;;;2.40;2.20;;;21.90;99.90;;;;;;5036560;28;20304;-77
2023/07/21 09:35:20;;;;;;;2.40;2.20;;;21.90;99.90;;;;;;5036902;28;20264;-76
2023/07/21 09:37:50;;;;;;;2.22;2.03;;;21.80;99.90;;;;;;5036445;28;20234;-76
2023/07/21 09:40:17;;;;;;;3.15;2.50;;;21.70;99.90;;;;;;5039696;28;20311;-76
2023/07/21 09:42:45;;;;;;;2.70;2.50;;;21.70;99.90;;;;;;5036484;28;20199;-75
2023/07/21 09:45:14;;;;;;;3.00;2.72;;;21.60;99.90;;;;;;5037708;28;20203;-75
2023/07/21 09:47:44;;;;;;;4.10;3.72;;;21.50;99.90;;;;;;5034023;28;20199;-75
2023/07/21 09:50:11;;;;;;;3.60;3.30;;;21.30;99.90;;;;;;5035188;28;20219;-76
2023/07/21 09:52:39;;;;;;;3.33;3.03;;;21.10;99.90;;;;;;5035588;28;20224;-76
2023/07/21 09:55:10;;;;;;;4.10;3.17;;;21.10;99.90;;;;;;5040847;28;20203;-77
2023/07/21 09:57:42;;;;;;;4.18;3.38;;;21.00;99.90;;;;;;5037934;28;20202;-76
2023/07/21 10:00:14;;;;;;;2.85;2.53;;;20.90;99.90;;;;;;5035994;28;20237;-76
2023/07/21 10:02:45;;;;;;;3.50;2.88;;;20.90;99.90;;;;;;5034864;28;20222;-78
2023/07/21 10:05:13;;;;;;;2.88;2.60;;;20.90;99.90;;;;;;5032308;28;20195;-75
2023/07/21 10:07:43;;;;;;;3.53;2.92;;;20.90;99.90;;;;;;5035805;28;20207;-76
2023/07/21 10:10:12;;;;;;;3.38;2.45;;;21.00;99.90;;;;;;5040177;28;20254;-77
2023/07/21 10:12:46;;;;;;;3.17;2.88;;;20.90;99.90;;;;;;5037767;28;20211;-77
2023/07/21 10:15:17;;;;;;;3.20;3.00;;;20.90;99.90;;;;;;5037234;28;20305;-76
2023/07/21 10:17:56;;;;;;;3.63;3.33;;;20.80;99.90;;;;;;5043934;28;20203;-77
2023/07/21 10:20:38;;;;;;;3.88;3.38;;;20.70;99.90;;;;;;5034355;28;20246;-76
2023/07/21 10:23:05;;;;;;;3.30;3.00;;;20.60;99.90;;;;;;5033367;28;20207;-77
2023/07/21 10:25:46;;;;;;;3.53;3.22;;;20.50;99.90;;;;;;5037228;28;20253;-77
2023/07/21 10:28:14;;;;;;;4.07;3.10;;;20.50;99.90;;;;;;5038442;28;20195;-76
2023/07/21 10:30:41;;;;;;;3.17;2.97;;;20.50;99.90;;;;;;5035269;28;20218;-77
2023/07/21 10:33:17;;;;;;;3.08;2.83;;;20.50;99.90;;;;;;5035732;28;20218;-76
2023/07/21 10:35:44;;;;;;;2.42;2.22;;;20.40;99.90;;;;;;5036333;28;20238;-77
2023/07/21 10:38:24;;;;;;;3.08;2.80;;;20.40;99.90;;;;;;5039489;28;20206;-76
2023/07/21 10:40:51;;;;;;;2.55;2.35;;;20.40;99.90;;;;;;5037361;28;20272;-76
2023/07/21 10:43:18;;;;;;;2.63;2.42;;;20.30;99.90;;;;;;5037421;28;20256;-77
2023/07/21 10:45:53;;;;;;;2.15;1.85;;;20.30;99.90;;;;;;5039051;28;20203;-76
2023/07/21 10:48:25;;;;;;;2.13;1.92;;;20.20;99.90;;;;;;5038401;28;20266;-76
2023/07/21 10:50:58;;;;;;;2.25;2.10;;;20.20;99.90;;;;;;5041279;28;20911;-78
2023/07/21 10:53:25;;;;;;;2.20;2.10;;;20.10;99.90;;;;;;5036067;28;20276;-78
2023/07/21 10:55:53;;;;;;;2.25;1.90;;;20.00;99.90;;;;;;5041519;28;20669;-77
2023/07/21 10:58:20;;;;;;;2.45;2.25;;;20.00;99.90;;;;;;5041529;28;20554;-77
2023/07/21 11:00:49;;;;;;;2.60;2.40;;;19.90;99.90;;;;;;5040831;28;20243;-77
2023/07/21 11:03:17;;;;;;;2.30;2.10;;;19.80;99.90;;;;;;5041031;28;20206;-77
2023/07/21 11:05:45;;;;;;;2.20;2.10;;;19.80;99.90;;;;;;5039459;28;20195;-78
2023/07/21 11:08:13;;;;;;;2.10;2.00;;;19.80;99.90;;;;;;5037518;28;20214;-76
2023/07/21 11:10:40;;;;;;;2.45;2.28;;;19.80;99.90;;;;;;5033199;28;20814;-75
2023/07/21 11:13:07;;;;;;;3.60;3.05;;;19.70;99.90;;;;;;5033321;28;20265;-76
2023/07/21 11:15:36;;;;;;;3.05;2.40;;;19.60;99.90;;;;;;5039263;28;20681;-77
2023/07/21 11:18:04;;;;;;;2.78;2.45;;;19.50;99.90;;;;;;5040891;28;20206;-77
2023/07/21 11:20:31;;;;;;;2.80;2.22;;;19.50;99.90;;;;;;5033943;28;20230;-77
2023/07/21 11:23:00;;;;;;;3.80;2.92;;;19.40;99.90;;;;;;5038206;28;20310;-75
2023/07/21 11:25:27;;;;;;;3.00;2.80;;;19.50;99.90;;;;;;5039152;28;20559;-77
2023/07/21 11:27:54;;;;;;;3.40;3.10;;;19.60;99.90;;;;;;5036205;28;20231;-77
2023/07/21 11:30:21;;;;;;;3.92;3.25;;;19.70;99.90;;;;;;5037601;28;20221;-77
2023/07/21 11:32:48;;;;;;;4.38;3.17;;;19.80;99.90;;;;;;5029142;28;20294;-75
2023/07/21 11:35:16;;;;;;;3.42;3.13;;;19.80;99.90;;;;;;5036496;28;20265;-78
2023/07/21 11:37:44;;;;;;;2.97;2.78;;;19.80;99.90;;;;;;5032435;28;20206;-77
2023/07/21 11:40:18;;;;;;;3.35;2.85;;;19.70;99.90;;;;;;5033003;28;20251;-77
2023/07/21 11:42:47;;;;;;;3.53;3.05;;;19.60;99.90;;;;;;5029319;28;21848;-78
2023/07/21 11:45:37;;;;;;;3.20;2.83;;;19.60;99.90;;;;;;5036366;28;20210;-77
2023/07/21 11:48:12;;;;;;;3.33;2.97;;;19.60;99.90;;;;;;5036418;28;20203;-77
2023/07/21 11:50:41;;;;;;;4.20;3.00;;;19.50;99.90;;;;;;5034882;28;20326;-76
2023/07/21 11:53:08;;;;;;;5.07;3.00;;;19.60;99.90;;;;;;5029777;28;20223;-77
2023/07/21 11:55:37;;;;;;;3.45;3.08;;;19.90;99.90;;;;;;5033946;28;20206;-75
2023/07/21 11:58:04;;;;;;;4.47;3.47;;;20.60;99.90;;;;;;5031467;28;20211;-76
2023/07/21 12:00:32;;;;;;;3.28;2.72;;;21.40;99.90;;;;;;5032437;28;23100;-75
2023/07/21 12:03:00;;;;;;;2.60;2.40;;;22.20;99.90;;;;;;5033331;28;20195;-75
2023/07/21 12:05:27;;;;;;;2.70;2.45;;;22.90;99.90;;;;;;5036527;28;20280;-77
2023/07/21 12:07:54;;;;;;;3.63;3.30;;;23.60;99.90;;;;;;5030612;28;20291;-77
2023/07/21 12:10:22;;;;;;;3.42;3.05;;;23.90;99.90;;;;;;5034640;28;20219;-77
2023/07/21 12:12:52;;;;;;;3.35;2.80;;;23.50;99.90;;;;;;5030285;28;20260;-78
2023/07/21 12:15:19;;;;;;;3.83;3.53;;;23.60;99.90;;;;;;5038654;28;20223;-76
2023/07/21 12:17:47;;;;;;;4.05;3.65;;;23.90;99.90;;;;;;5036162;28;20237;-77
2023/07/21 12:20:15;;;;;;;3.70;3.30;;;24.20;99.90;;;;;;5037569;28;20273;-76
2023/07/21 12:22:42;;;;;;;3.60;3.30;;;24.50;99.90;;;;;;5031882;28;20206;-78
2023/07/21 12:25:10;;;;;;;3.35;3.05;;;24.50;99.90;;;;;;5034101;28;21011;-77
2023/07/21 12:27:38;;;;;;;3.58;3.00;;;24.50;99.90;;;;;;5034851;28;20200;-77
2023/07/21 12:30:08;;;;;;;3.92;2.85;;;24.60;99.90;;;;;;5035242;28;20314;-77
2023/07/21 12:32:35;;;;;;;3.95;2.75;;;24.70;99.90;;;;;;5034960;28;20250;-76
2023/07/21 12:35:02;;;;;;;3.88;2.72;;;24.70;99.90;;;;;;5036559;28;20322;-76
2023/07/21 12:37:29;;;;;;;3.20;2.90;;;24.80;99.90;;;;;;5037606;28;20229;-78
2023/07/21 12:39:56;;;;;;;3.45;3.15;;;24.80;99.90;;;;;;5035918;28;20218;-77
2023/07/21 12:42:27;;;;;;;3.20;2.80;;;24.90;99.90;;;;;;5037867;28;20195;-78
2023/07/21 12:44:54;;;;;;;3.38;2.80;;;25.10;99.90;;;;;;5033906;28;20217;-76
2023/07/21 12:47:23;;;;;;;4.97;2.67;;;25.30;99.90;;;;;;5031415;28;20254;-78
2023/07/21 12:49:50;;;;;;;2.83;2.63;;;25.60;99.90;;;;;;5036656;28;20247;-78